Time;durP1;ratioP1;P1;durP2;ratioP2;P2;SDS_P1;SDS_P2;PMS_P1;PMS_P2;Temp;Humidity;BMP_temperature;BMP_pressure;BME280_temperature;BME280_humidity;BME280_pressure;Samples;Min_cycle;Max_cycle;Signal;HPM_P1;HPM_P2
2020/12/22 00:02:12;;;;;;;8.80;5.70;;;;;;;;;;5053438;28;20080;-71
2020/12/22 00:04:38;;;;;;;8.18;5.03;;;;;;;;;;5053198;28;20028;-69
2020/12/22 00:07:05;;;;;;;7.97;5.22;;;;;;;;;;5053143;28;20060;-67
2020/12/22 00:09:31;;;;;;;10.25;5.70;;;;;;;;;;5053013;28;20036;-70
2020/12/22 00:11:57;;;;;;;9.35;5.93;;;16.60;73.30;;;;;;5052839;28;20403;-67
2020/12/22 00:14:23;;;;;;;8.35;5.93;;;;;;;;;;5053369;28;20048;-68
2020/12/22 00:16:49;;;;;;;7.95;5.28;;;;;;;;;;5053277;28;20056;-68
2020/12/22 00:19:16;;;;;;;7.53;5.03;;;;;;;;;;5053020;28;20400;-66
2020/12/22 00:21:42;;;;;;;8.93;5.40;;;;;;;;;;5052825;28;20036;-67
2020/12/22 00:24:08;;;;;;;8.18;5.40;;;;;;;;;;5052820;28;20052;-68
2020/12/22 00:26:34;;;;;;;8.13;5.18;;;16.80;73.40;;;;;;5053074;28;20111;-68
2020/12/22 00:29:00;;;;;;;9.50;5.47;;;17.00;72.30;;;;;;5068211;28;20179;-67
2020/12/22 00:31:26;;;;;;;7.63;4.70;;;17.10;72.10;;;;;;5053041;28;20040;-68
2020/12/22 00:33:51;;;;;;;9.80;4.87;;;17.10;71.90;;;;;;5053250;28;20114;-69
2020/12/22 00:36:18;;;;;;;7.63;4.90;;;;;;;;;;5070289;28;20423;-68
2020/12/22 00:38:45;;;;;;;9.40;4.90;;;17.10;72.50;;;;;;5052968;28;20037;-69
2020/12/22 00:41:14;;;;;;;10.15;4.97;;;17.10;72.30;;;;;;5052737;28;20033;-67
2020/12/22 00:43:42;;;;;;;6.78;4.15;;;17.20;72.10;;;;;;5052697;28;20037;-67
2020/12/22 00:46:08;;;;;;;7.32;4.50;;;17.20;72.10;;;;;;5052688;28;20048;-68
2020/12/22 00:48:34;;;;;;;6.35;4.28;;;;;;;;;;5052604;28;20078;-68
2020/12/22 00:51:01;;;;;;;5.90;3.58;;;;;;;;;;5051016;28;20107;-68
2020/12/22 00:53:27;;;;;;;5.32;3.47;;;17.10;72.80;;;;;;5052385;28;20040;-67
2020/12/22 00:55:54;;;;;;;5.50;3.78;;;;;;;;;;5050971;28;20391;-68
2020/12/22 00:58:20;;;;;;;4.90;3.58;;;17.10;73.10;;;;;;5050091;28;20048;-68
2020/12/22 01:00:47;;;;;;;5.93;3.80;;;;;;;;;;5051091;28;20376;-67
2020/12/22 01:03:13;;;;;;;4.70;3.08;;;;;;;;;;5052561;28;20444;-69
2020/12/22 01:05:39;;;;;;;4.53;3.33;;;;;;;;;;5050908;28;20433;-68
2020/12/22 01:08:05;;;;;;;4.07;2.85;;;;;;;;;;5052189;28;20029;-68
2020/12/22 01:10:32;;;;;;;4.53;2.88;;;;;;;;;;5050020;28;20396;-67
2020/12/22 01:12:58;;;;;;;3.88;2.90;;;;;;;;;;5061191;28;20053;-68
2020/12/22 01:15:24;;;;;;;4.95;3.00;;;17.50;71.80;;;;;;5071614;28;20061;-67
2020/12/22 01:17:50;;;;;;;3.00;2.70;;;17.40;72.10;;;;;;5072128;28;20021;-67
2020/12/22 01:20:16;;;;;;;2.50;2.30;;;;;;;;;;5071937;28;20032;-67
2020/12/22 01:22:42;;;;;;;2.63;2.42;;;17.40;72.00;;;;;;5071778;28;20036;-69
2020/12/22 01:25:08;;;;;;;2.70;2.33;;;17.40;72.20;;;;;;5071515;28;20028;-68
2020/12/22 01:27:34;;;;;;;2.27;2.00;;;;;;;;;;5071819;28;20093;-68
2020/12/22 01:30:00;;;;;;;2.53;2.30;;;17.40;72.50;;;;;;5071380;28;20791;-68
2020/12/22 01:32:26;;;;;;;;;;;17.40;73.00;;;;;;5072233;28;20040;-66
2020/12/22 01:34:52;;;;;;;2.30;2.10;;;17.40;72.00;;;;;;5071465;28;19969;-65
2020/12/22 01:37:18;;;;;;;2.13;1.93;;;;;;;;;;5070190;28;20040;-67
2020/12/22 01:39:44;;;;;;;2.17;2.00;;;17.10;73.30;;;;;;5071549;28;20040;-67
2020/12/22 01:42:11;;;;;;;2.07;1.87;;;;;;;;;;5071695;28;20921;-68
2020/12/22 01:44:37;;;;;;;2.00;1.90;;;17.20;73.40;;;;;;5071788;28;20036;-68
2020/12/22 01:47:03;;;;;;;1.80;1.70;;;17.20;72.90;;;;;;5071147;28;20546;-69
2020/12/22 01:49:29;;;;;;;2.47;1.73;;;;;;;;;;5071592;28;20035;-68
2020/12/22 01:51:56;;;;;;;1.80;1.70;;;17.30;72.80;;;;;;5071214;28;20040;-66
2020/12/22 01:54:23;;;;;;;1.48;1.48;;;17.40;72.40;;;;;;5071495;28;20028;-67
2020/12/22 01:56:49;;;;;;;2.05;1.60;;;17.40;72.30;;;;;;5071445;28;20042;-67
2020/12/22 01:59:17;;;;;;;1.37;1.37;;;17.20;72.90;;;;;;5071446;28;20382;-66
2020/12/22 02:01:43;;;;;;;1.63;1.52;;;17.10;73.20;;;;;;5071275;28;20024;-67
2020/12/22 02:04:10;;;;;;;1.73;1.63;;;17.20;73.10;;;;;;5070024;28;20044;-66
2020/12/22 02:06:36;;;;;;;1.80;1.65;;;;;;;;;;5071234;28;20111;-66
2020/12/22 02:09:07;;;;;;;1.55;1.45;;;17.20;72.80;;;;;;5071211;28;20075;-65
2020/12/22 02:11:34;;;;;;;1.63;1.52;;;17.20;73.10;;;;;;5070705;28;20052;-66
2020/12/22 02:14:03;;;;;;;1.77;1.67;;;17.30;72.70;;;;;;5071365;28;20132;-66
2020/12/22 02:16:29;;;;;;;2.75;1.50;;;;;;;;;;5071268;28;20059;-65
2020/12/22 02:18:55;;;;;;;1.92;1.83;;;17.00;73.50;;;;;;5071287;28;20028;-66
2020/12/22 02:21:22;;;;;;;1.58;1.48;;;17.20;73.30;;;;;;5052612;28;20044;-66
2020/12/22 02:23:48;;;;;;;3.10;1.55;;;17.20;72.90;;;;;;5071085;28;20028;-67
2020/12/22 02:26:24;;;;;;;1.70;1.60;;;17.20;72.80;;;;;;5070924;28;20115;-67
2020/12/22 02:28:52;;;;;;;1.42;1.33;;;17.10;73.20;;;;;;5071340;28;20119;-65
2020/12/22 02:31:19;;;;;;;1.30;1.30;;;16.90;73.60;;;;;;5071033;28;20036;-66
2020/12/22 02:33:45;;;;;;;1.92;1.58;;;16.90;73.70;;;;;;5071144;28;20036;-66
2020/12/22 02:36:13;;;;;;;1.60;1.50;;;16.90;73.80;;;;;;5070665;28;20117;-67
2020/12/22 02:38:39;;;;;;;7.10;1.58;;;17.00;73.30;;;;;;5070664;28;20039;-66
2020/12/22 02:41:06;;;;;;;1.90;1.80;;;16.90;73.60;;;;;;5071225;28;20120;-66
2020/12/22 02:43:32;;;;;;;1.85;1.75;;;;;;;;;;5070998;28;20025;-66
2020/12/22 02:45:59;;;;;;;1.70;1.60;;;;;;;;;;5070970;28;20032;-65
2020/12/22 02:48:24;;;;;;;2.72;1.73;;;16.90;73.60;;;;;;5070829;28;20056;-66
2020/12/22 02:50:51;;;;;;;1.67;1.58;;;;;;;;;;5071101;28;20428;-66
2020/12/22 02:53:17;;;;;;;1.67;1.58;;;;;;;;;;5070417;28;20037;-65
2020/12/22 02:55:43;;;;;;;1.65;1.55;;;16.90;73.40;;;;;;5071075;28;20069;-67
2020/12/22 02:58:09;;;;;;;4.70;1.37;;;16.90;73.50;;;;;;5070791;28;20048;-65
2020/12/22 03:00:35;;;;;;;1.80;1.70;;;;;;;;;;5070739;28;20077;-64
2020/12/22 03:03:01;;;;;;;1.40;1.30;;;16.70;73.60;;;;;;5069480;28;20032;-64
2020/12/22 03:05:27;;;;;;;1.63;1.53;;;16.80;73.80;;;;;;5070322;28;20039;-66
2020/12/22 03:07:53;;;;;;;4.03;1.73;;;16.80;73.70;;;;;;5070643;28;20032;-66
2020/12/22 03:10:19;;;;;;;1.33;1.33;;;17.00;73.20;;;;;;5070342;28;20115;-65
2020/12/22 03:12:47;;;;;;;3.72;1.88;;;16.80;73.70;;;;;;5070621;28;20044;-67
2020/12/22 03:15:13;;;;;;;1.95;1.73;;;17.00;73.10;;;;;;5070669;28;20048;-66
2020/12/22 03:17:40;;;;;;;1.70;1.60;;;17.00;73.20;;;;;;5070933;28;20070;-66
2020/12/22 03:20:11;;;;;;;1.67;1.58;;;17.10;73.30;;;;;;5070630;28;20474;-66
2020/12/22 03:22:38;;;;;;;1.60;1.50;;;16.80;73.40;;;;;;5072178;28;20386;-65
2020/12/22 03:25:04;;;;;;;;;;;17.00;74.00;;;;;;5074361;28;20399;-64
2020/12/22 03:27:31;;;;;;;2.22;1.75;;;17.00;73.40;;;;;;5074360;28;19915;-67
2020/12/22 03:29:57;;;;;;;2.95;1.73;;;;;;;;;;5073938;28;20486;-65
2020/12/22 03:32:23;;;;;;;;;;;17.00;73.10;;;;;;5074456;28;20102;-65
2020/12/22 03:34:50;;;;;;;2.10;1.83;;;16.90;73.90;;;;;;5073961;28;19912;-67
2020/12/22 03:37:21;;;;;;;2.20;2.00;;;17.20;73.20;;;;;;5073948;28;20135;-67
2020/12/22 03:39:49;;;;;;;2.13;1.85;;;17.10;72.70;;;;;;5073808;28;20040;-66
2020/12/22 03:42:15;;;;;;;2.60;2.10;;;17.10;73.10;;;;;;5074084;28;20036;-67
2020/12/22 03:44:42;;;;;;;2.22;2.10;;;;;;;;;;5073990;28;20094;-67
2020/12/22 03:47:08;;;;;;;2.70;2.05;;;17.30;72.50;;;;;;5072249;28;20063;-65
2020/12/22 03:49:34;;;;;;;3.83;2.50;;;17.20;72.90;;;;;;5073788;28;20068;-65
2020/12/22 03:52:00;;;;;;;2.23;2.03;;;;;;;;;;5074310;28;20040;-66
2020/12/22 03:54:26;;;;;;;6.38;2.20;;;;;;;;;;5074236;28;20274;-65
2020/12/22 03:56:52;;;;;;;2.42;2.22;;;17.30;72.60;;;;;;5073697;28;20111;-66
2020/12/22 03:59:18;;;;;;;2.57;2.20;;;;;;;;;;5073598;28;20104;-65
2020/12/22 04:01:44;;;;;;;2.33;2.05;;;17.10;73.20;;;;;;5073623;28;20036;-65
2020/12/22 04:04:10;;;;;;;2.53;2.10;;;;;;;;;;5073320;28;20028;-65
2020/12/22 04:06:36;;;;;;;5.65;2.20;;;17.20;72.70;;;;;;5071426;28;20399;-66
2020/12/22 04:09:02;;;;;;;3.53;2.00;;;17.30;72.60;;;;;;5071800;28;20086;-66
2020/12/22 04:11:28;;;;;;;3.00;2.28;;;17.40;72.20;;;;;;5073073;28;20455;-66
2020/12/22 04:13:54;;;;;;;5.80;2.70;;;;;;;;;;5073358;28;20036;-65
2020/12/22 04:16:20;;;;;;;4.15;2.50;;;17.30;72.70;;;;;;5073196;28;20050;-66
2020/12/22 04:18:47;;;;;;;2.20;2.10;;;;;;;;;;5071844;28;20116;-63
2020/12/22 04:21:13;;;;;;;2.28;2.08;;;;;;;;;;5071804;28;20055;-66
2020/12/22 04:23:39;;;;;;;2.25;2.00;;;17.40;72.30;;;;;;5072888;28;20463;-65
2020/12/22 04:26:05;;;;;;;2.20;2.10;;;17.40;72.10;;;;;;5073079;28;20028;-65
2020/12/22 04:28:31;;;;;;;3.33;2.70;;;;;;;;;;5073239;28;20024;-67
2020/12/22 04:30:58;;;;;;;2.80;2.58;;;;;;;;;;5073046;28;20024;-66
2020/12/22 04:33:24;;;;;;;3.15;2.72;;;17.00;73.60;;;;;;5072624;28;20051;-66
2020/12/22 04:35:49;;;;;;;3.10;2.80;;;17.10;73.30;;;;;;5072708;28;20036;-66
2020/12/22 04:38:15;;;;;;;4.23;3.20;;;17.10;73.60;;;;;;5072339;28;20031;-65
2020/12/22 04:40:41;;;;;;;4.37;3.30;;;17.00;73.30;;;;;;5072658;28;20060;-66
2020/12/22 04:43:07;;;;;;;7.63;3.37;;;17.10;73.20;;;;;;5072433;28;20032;-66
2020/12/22 04:45:34;;;;;;;5.57;3.30;;;17.40;72.30;;;;;;5071504;28;20044;-67
2020/12/22 04:47:59;;;;;;;;;;;17.30;72.80;;;;;;5073065;28;20139;-65
2020/12/22 04:50:25;;;;;;;4.28;3.30;;;17.20;72.40;;;;;;5072584;28;20010;-65
2020/12/22 04:52:52;;;;;;;4.67;3.30;;;17.20;72.30;;;;;;5072255;28;20135;-66
2020/12/22 04:55:20;;;;;;;;;;;17.20;72.80;;;;;;5072644;28;20490;-65
2020/12/22 04:57:48;;;;;;;4.97;3.67;;;17.30;72.40;;;;;;5072582;28;19914;-65
2020/12/22 05:00:16;;;;;;;6.10;3.83;;;17.30;72.20;;;;;;5072267;28;20035;-66
2020/12/22 05:02:43;;;;;;;6.80;4.00;;;17.40;71.80;;;;;;5072322;28;20036;-67
2020/12/22 05:05:10;;;;;;;5.18;3.97;;;17.50;71.60;;;;;;5072253;28;20024;-66
2020/12/22 05:07:40;;;;;;;5.72;3.97;;;17.40;71.40;;;;;;5071775;28;20474;-67
2020/12/22 05:10:11;;;;;;;6.45;4.22;;;17.40;71.80;;;;;;5059792;28;20116;-67
2020/12/22 05:12:38;;;;;;;4.80;3.53;;;17.40;71.70;;;;;;5069942;28;20112;-66
2020/12/22 05:15:06;;;;;;;6.43;3.70;;;17.50;71.40;;;;;;5072089;28;20104;-66
2020/12/22 05:17:42;;;;;;;7.50;3.63;;;17.40;71.80;;;;;;5067346;28;20090;-68
2020/12/22 05:20:12;;;;;;;5.70;3.72;;;17.20;72.20;;;;;;5071732;28;20017;-65
2020/12/22 05:22:39;;;;;;;5.68;3.70;;;17.20;72.30;;;;;;5071569;28;20021;-67
2020/12/22 05:25:05;;;;;;;6.00;3.70;;;17.30;71.50;;;;;;5054866;28;20040;-65
2020/12/22 05:27:32;;;;;;;6.75;3.65;;;17.50;70.90;;;;;;5031770;28;20091;-65
2020/12/22 05:30:05;;;;;;;5.85;3.95;;;17.60;70.30;;;;;;5063848;28;20390;-65
2020/12/22 05:32:31;;;;;;;5.47;3.58;;;17.50;70.20;;;;;;5065425;28;20036;-65
2020/12/22 05:34:58;;;;;;;6.00;4.10;;;;;;;;;;5064061;28;20017;-65
2020/12/22 05:37:27;;;;;;;6.65;4.00;;;17.20;71.40;;;;;;5066626;28;20028;-65
2020/12/22 05:39:54;;;;;;;6.03;3.97;;;;;;;;;;5055818;28;20121;-64
2020/12/22 05:42:20;;;;;;;7.68;4.03;;;17.10;72.00;;;;;;5043460;28;20048;-66
2020/12/22 05:44:50;;;;;;;7.07;4.53;;;17.30;71.40;;;;;;5053741;28;20535;-64
2020/12/22 05:47:18;;;;;;;7.75;4.53;;;17.30;71.70;;;;;;5056622;28;20033;-64
2020/12/22 05:49:52;;;;;;;8.13;4.70;;;17.50;71.10;;;;;;5054498;28;20127;-66
2020/12/22 05:52:21;;;;;;;8.15;5.28;;;17.60;70.50;;;;;;5051246;28;20024;-65
2020/12/22 05:54:50;;;;;;;7.72;4.70;;;17.60;70.10;;;;;;5054595;28;20497;-65
2020/12/22 05:57:19;;;;;;;9.50;5.72;;;17.50;70.60;;;;;;5057763;28;20892;-66
2020/12/22 05:59:45;;;;;;;8.70;6.25;;;17.60;70.30;;;;;;5054702;28;20173;-65
2020/12/22 06:02:26;;;;;;;9.27;5.93;;;17.60;70.30;;;;;;5057650;28;20028;-65
2020/12/22 06:05:02;;;;;;;9.60;6.25;;;17.60;70.20;;;;;;5054507;28;20017;-67
2020/12/22 06:07:28;;;;;;;8.50;6.20;;;17.60;70.40;;;;;;5057780;28;20043;-66
2020/12/22 06:09:55;;;;;;;9.95;5.60;;;17.70;70.00;;;;;;5054869;28;20037;-65
2020/12/22 06:12:23;;;;;;;9.20;5.93;;;17.60;70.30;;;;;;5057445;28;20040;-66
2020/12/22 06:14:53;;;;;;;10.13;6.15;;;17.60;70.60;;;;;;5054543;28;20036;-65
2020/12/22 06:17:20;;;;;;;9.70;6.03;;;17.60;70.50;;;;;;5056311;28;20025;-66
2020/12/22 06:19:47;;;;;;;9.05;6.00;;;17.50;70.80;;;;;;5058407;28;20059;-65
2020/12/22 06:22:15;;;;;;;9.13;5.35;;;17.40;71.20;;;;;;5071699;28;20033;-64
2020/12/22 06:24:43;;;;;;;9.18;5.80;;;17.40;71.40;;;;;;5072242;28;20024;-65
2020/12/22 06:27:11;;;;;;;11.98;5.60;;;17.40;70.80;;;;;;5070846;28;20713;-65
2020/12/22 06:29:46;;;;;;;7.75;4.88;;;17.50;71.00;;;;;;5070628;28;20040;-66
2020/12/22 06:32:29;;;;;;;9.65;5.30;;;17.60;70.30;;;;;;5062116;28;20383;-66
2020/12/22 06:35:03;;;;;;;9.77;5.63;;;17.50;70.20;;;;;;5067884;28;20017;-66
2020/12/22 06:37:43;;;;;;;8.73;5.47;;;17.40;70.40;;;;;;5070562;28;20029;-66
2020/12/22 06:40:09;;;;;;;7.90;5.00;;;17.40;70.50;;;;;;5070649;28;20028;-64
2020/12/22 06:42:38;;;;;;;;;;;17.40;71.00;;;;;;5071248;28;20339;-64
2020/12/22 06:45:23;;;;;;;7.90;5.05;;;17.40;70.20;;;;;;5071008;28;19966;-65
2020/12/22 06:47:50;;;;;;;7.80;4.28;;;17.40;70.00;;;;;;5069623;28;20437;-65
2020/12/22 06:50:35;;;;;;;5.47;4.03;;;17.40;69.40;;;;;;4364600;28;10000825;-64
2020/12/22 06:53:01;;;;;;;5.85;3.95;;;;;;;;;;5068436;28;20657;-64
2020/12/22 06:55:48;;;;;;;7.05;3.78;;;17.30;69.80;;;;;;5041667;28;20498;-65
2020/12/22 06:58:52;;;;;;;8.68;3.78;;;17.40;68.80;;;;;;5048838;28;20063;-64
2020/12/22 07:01:27;;;;;;;10.32;4.13;;;17.20;69.40;;;;;;5009633;28;20096;-66
2020/12/22 07:04:10;;;;;;;6.82;3.60;;;17.40;69.10;;;;;;5017768;28;20488;-66
2020/12/22 07:06:47;;;;;;;6.90;3.85;;;17.40;68.30;;;;;;5014131;28;20057;-66
2020/12/22 07:09:19;;;;;;;4.80;3.30;;;17.40;68.20;;;;;;5018276;28;20506;-67
2020/12/22 07:11:46;;;;;;;8.68;3.60;;;17.50;68.10;;;;;;5013974;28;20052;-67
2020/12/22 07:14:16;;;;;;;;;;;17.50;68.60;;;;;;5018245;28;20039;-66
2020/12/22 07:16:49;;;;;;;5.22;3.40;;;17.60;67.60;;;;;;5014053;28;20229;-66
2020/12/22 07:19:21;;;;;;;6.10;3.60;;;17.50;68.10;;;;;;5017718;28;20065;-64
2020/12/22 07:21:48;;;;;;;8.23;3.08;;;17.50;68.20;;;;;;5016469;28;20447;-66
2020/12/22 07:24:14;;;;;;;7.10;3.42;;;;;;;;;;5012733;28;20047;-65
2020/12/22 07:26:41;;;;;;;8.15;3.50;;;17.40;68.30;;;;;;5012217;28;20372;-67
2020/12/22 07:29:07;;;;;;;5.60;3.22;;;;;;;;;;5007002;28;20049;-65
2020/12/22 07:31:34;;;;;;;;;;;17.40;68.00;;;;;;5019572;28;20044;-65
2020/12/22 07:34:06;;;;;;;5.70;3.13;;;17.20;69.60;;;;;;5051727;28;19917;-68
2020/12/22 07:36:33;;;;;;;6.00;3.45;;;17.30;69.60;;;;;;5051223;28;20114;-66
2020/12/22 07:39:14;;;;;;;4.32;3.03;;;17.30;69.30;;;;;;5051018;28;20041;-65
2020/12/22 07:41:41;;;;;;;4.10;3.08;;;17.10;69.60;;;;;;5051602;28;20037;-66
2020/12/22 07:44:12;;;;;;;6.10;3.05;;;17.00;70.50;;;;;;5051452;28;20036;-67
2020/12/22 07:46:39;;;;;;;6.00;3.45;;;17.10;70.40;;;;;;5051056;28;20033;-66
2020/12/22 07:49:07;;;;;;;5.90;3.10;;;17.10;70.00;;;;;;5049654;28;20484;-65
2020/12/22 07:51:33;;;;;;;9.65;3.97;;;;;;;;;;5056648;28;20025;-66
2020/12/22 07:54:03;;;;;;;8.50;3.92;;;17.30;69.30;;;;;;5037374;28;20133;-65
2020/12/22 07:56:30;;;;;;;5.93;3.42;;;17.10;69.70;;;;;;5051065;28;20025;-66
2020/12/22 07:58:57;;;;;;;5.90;3.67;;;17.10;70.00;;;;;;5050927;28;20064;-66
2020/12/22 08:01:24;;;;;;;4.93;3.05;;;17.10;69.80;;;;;;5050952;28;20037;-66
2020/12/22 08:03:49;;;;;;;7.55;3.67;;;17.20;68.90;;;;;;5050958;28;20110;-65
2020/12/22 08:06:16;;;;;;;6.17;3.70;;;;;;;;;;5050646;28;20138;-63
2020/12/22 08:08:42;;;;;;;9.90;4.32;;;;;;;;;;5049998;28;20052;-66
2020/12/22 08:11:20;;;;;;;11.43;4.32;;;17.50;68.40;;;;;;5050630;28;20460;-65
2020/12/22 08:13:46;;;;;;;11.55;4.68;;;17.50;68.20;;;;;;5039494;28;20042;-65
2020/12/22 08:16:12;;;;;;;9.83;5.53;;;17.50;68.20;;;;;;5061904;28;20021;-65
2020/12/22 08:18:39;;;;;;;8.70;5.32;;;17.30;68.40;;;;;;5056408;28;20275;-66
2020/12/22 08:21:05;;;;;;;12.40;5.35;;;17.10;69.00;;;;;;5069641;28;20028;-66
2020/12/22 08:23:32;;;;;;;12.48;4.93;;;17.30;68.20;;;;;;5071098;28;20028;-64
2020/12/22 08:25:58;;;;;;;7.43;4.43;;;16.90;68.20;;;;;;5070468;28;20032;-65
2020/12/22 08:28:27;;;;;;;7.80;4.00;;;16.90;68.70;;;;;;5070197;28;20468;-65
2020/12/22 08:30:54;;;;;;;14.65;4.25;;;16.90;68.70;;;;;;5070799;28;20040;-67
2020/12/22 08:33:23;;;;;;;9.98;4.32;;;16.80;68.70;;;;;;5070128;28;20449;-66
2020/12/22 08:35:50;;;;;;;10.00;3.90;;;16.80;68.60;;;;;;5070052;28;20111;-66
2020/12/22 08:38:24;;;;;;;7.13;4.25;;;16.90;68.40;;;;;;5070106;28;20037;-67
2020/12/22 08:40:55;;;;;;;11.10;4.05;;;16.90;68.20;;;;;;5068997;28;20400;-67
2020/12/22 08:43:24;;;;;;;8.93;4.00;;;16.90;68.20;;;;;;5070235;28;20036;-67
2020/12/22 08:45:51;;;;;;;10.18;3.83;;;16.90;67.70;;;;;;5070548;28;20078;-67
2020/12/22 08:48:18;;;;;;;8.13;3.83;;;;;;;;;;5069967;28;20029;-66
2020/12/22 08:50:53;;;;;;;10.40;4.18;;;17.10;67.50;;;;;;5071350;28;20028;-65
2020/12/22 08:53:19;;;;;;;9.93;3.58;;;17.10;66.70;;;;;;5071578;28;20040;-65
2020/12/22 08:55:44;;;;;;;8.67;3.57;;;16.90;66.90;;;;;;5071904;28;20052;-64
2020/12/22 08:58:11;;;;;;;10.63;3.20;;;;;;;;;;5071918;28;20119;-65
2020/12/22 09:00:37;;;;;;;12.93;3.75;;;;;;;;;;5071705;28;20542;-64
2020/12/22 09:03:03;;;;;;;9.65;3.38;;;16.90;67.20;;;;;;5071682;28;20033;-67
2020/12/22 09:05:31;;;;;;;9.73;3.30;;;16.90;67.30;;;;;;5071567;28;20119;-64
2020/12/22 09:07:57;;;;;;;7.38;3.33;;;16.90;67.60;;;;;;5071938;28;20031;-65
2020/12/22 09:10:23;;;;;;;;;;;16.90;68.10;;;;;;5070508;28;20020;-65
2020/12/22 09:12:50;;;;;;;7.85;3.70;;;;;;;;;;5071179;28;19970;-66
2020/12/22 09:15:16;;;;;;;;;;;17.10;66.90;;;;;;5071745;28;20084;-66
2020/12/22 09:17:42;;;;;;;23.10;3.95;;;;;;;;;;5071370;28;19954;-65
2020/12/22 09:20:08;;;;;;;8.55;3.00;;;16.90;66.20;;;;;;5070644;28;20029;-65
2020/12/22 09:22:35;;;;;;;11.55;3.17;;;16.80;66.00;;;;;;5071163;28;20043;-65
2020/12/22 09:25:04;;;;;;;10.93;3.25;;;17.00;66.80;;;;;;5071074;28;20522;-64
2020/12/22 09:27:31;;;;;;;8.32;3.08;;;17.20;65.60;;;;;;5071477;28;20033;-65
2020/12/22 09:29:58;;;;;;;8.93;3.03;;;17.20;65.60;;;;;;5070776;28;20017;-64
2020/12/22 09:32:24;;;;;;;8.70;2.95;;;;;;;;;;5070749;28;20039;-64
2020/12/22 09:34:50;;;;;;;6.85;3.03;;;17.20;65.70;;;;;;5071017;28;20028;-64
2020/12/22 09:37:16;;;;;;;11.57;3.40;;;17.10;65.90;;;;;;5062579;28;20507;-65
2020/12/22 09:39:42;;;;;;;7.35;2.90;;;17.20;65.60;;;;;;5065556;28;20040;-64
2020/12/22 09:42:09;;;;;;;10.10;3.10;;;;;;;;;;5071123;28;20055;-65
2020/12/22 09:44:35;;;;;;;6.35;3.13;;;17.40;64.30;;;;;;5071192;28;20059;-64
2020/12/22 09:47:01;;;;;;;;;;;17.40;64.80;;;;;;5069931;28;20028;-64
2020/12/22 09:49:28;;;;;;;6.10;2.60;;;;;;;;;;5070643;28;19908;-63
2020/12/22 09:51:54;;;;;;;3.95;2.45;;;17.60;63.50;;;;;;5069852;28;20100;-63
2020/12/22 09:54:20;;;;;;;7.72;3.08;;;17.60;63.70;;;;;;5070964;28;20509;-63
2020/12/22 09:56:47;;;;;;;5.97;2.78;;;;;;;;;;5070876;28;20063;-65
2020/12/22 09:59:13;;;;;;;8.95;2.67;;;;;;;;;;5070622;28;20032;-64
2020/12/22 10:01:40;;;;;;;8.25;3.35;;;17.80;63.50;;;;;;5052763;28;20032;-64
2020/12/22 10:04:06;;;;;;;5.72;3.13;;;17.70;63.50;;;;;;5069459;28;20025;-65
2020/12/22 10:06:31;;;;;;;8.07;3.50;;;17.70;63.90;;;;;;5052467;28;20047;-64
2020/12/22 10:08:57;;;;;;;11.73;3.10;;;17.70;63.90;;;;;;5070452;28;20291;-64
2020/12/22 10:11:25;;;;;;;6.40;3.40;;;17.60;64.00;;;;;;5069360;28;20036;-63
2020/12/22 10:13:51;;;;;;;6.60;3.33;;;17.70;63.60;;;;;;5069040;28;20048;-64
2020/12/22 10:16:19;;;;;;;14.05;3.75;;;17.70;64.20;;;;;;5062990;28;20055;-63
2020/12/22 10:18:46;;;;;;;10.13;3.40;;;17.70;64.10;;;;;;5064251;28;20601;-64
2020/12/22 10:21:17;;;;;;;10.52;3.83;;;17.80;63.60;;;;;;5070448;28;20119;-64
2020/12/22 10:23:44;;;;;;;11.18;3.40;;;17.70;63.50;;;;;;5070639;28;20129;-65
2020/12/22 10:26:12;;;;;;;6.22;3.13;;;17.60;63.70;;;;;;5069173;28;20028;-65
2020/12/22 10:28:40;;;;;;;8.45;2.67;;;17.50;63.90;;;;;;5070540;28;20036;-64
2020/12/22 10:31:10;;;;;;;9.32;3.13;;;17.30;64.70;;;;;;5071660;28;20112;-64
2020/12/22 10:33:36;;;;;;;9.40;3.03;;;17.40;64.70;;;;;;5074500;28;20033;-64
2020/12/22 10:36:03;;;;;;;6.73;3.07;;;17.40;65.20;;;;;;5074200;28;20028;-64
2020/12/22 10:38:29;;;;;;;7.30;2.60;;;17.50;64.60;;;;;;5073745;28;20021;-64
2020/12/22 10:40:56;;;;;;;5.13;2.85;;;17.50;64.80;;;;;;5074634;28;20032;-64
2020/12/22 10:43:22;;;;;;;;;;;17.50;65.30;;;;;;5073575;28;20033;-65
2020/12/22 10:45:48;;;;;;;6.88;3.20;;;;;;;;;;5072805;28;19935;-64
2020/12/22 10:48:14;;;;;;;10.02;2.80;;;17.40;65.30;;;;;;5074777;28;20124;-63
2020/12/22 10:50:40;;;;;;;8.95;3.55;;;;;;;;;;4720206;28;10000299;-63
2020/12/22 10:53:07;;;;;;;9.02;3.35;;;17.40;65.40;;;;;;5064733;28;20048;-63
2020/12/22 10:55:34;;;;;;;;;;;17.40;65.80;;;;;;5072371;28;20029;-64
2020/12/22 10:58:00;;;;;;;;;;;17.40;66.00;;;;;;5054275;28;19970;-65
2020/12/22 11:00:26;;;;;;;9.57;3.83;;;17.30;65.90;;;;;;5070331;28;20010;-63
2020/12/22 11:02:54;;;;;;;15.57;3.75;;;;;;;;;;5069854;28;20487;-65
2020/12/22 11:08:22;;;;;;;8.35;3.47;;;17.50;65.50;;;;;;5049143;28;20091;-64
2020/12/22 11:10:49;;;;;;;10.77;3.47;;;;;;;;;;5048911;28;20052;-65
2020/12/22 11:13:16;;;;;;;13.02;3.92;;;;;;;;;;5032152;28;20511;-66
2020/12/22 11:15:44;;;;;;;8.55;3.75;;;17.10;67.20;;;;;;5048608;28;20049;-66
2020/12/22 11:18:10;;;;;;;5.32;3.38;;;;;;;;;;5040015;28;20119;-65
2020/12/22 11:20:36;;;;;;;11.77;3.70;;;;;;;;;;5043675;28;20033;-67
2020/12/22 11:23:03;;;;;;;7.47;3.80;;;16.50;69.70;;;;;;5048768;28;20044;-67
2020/12/22 11:25:29;;;;;;;7.43;3.55;;;16.70;69.00;;;;;;5048883;28;20040;-67
2020/12/22 11:27:56;;;;;;;8.93;4.10;;;;;;;;;;5031762;28;20025;-67
2020/12/22 11:30:23;;;;;;;9.85;3.75;;;16.70;68.30;;;;;;5049718;28;20039;-67
2020/12/22 11:32:50;;;;;;;6.85;3.70;;;;;;;;;;5032338;28;20048;-65
2020/12/22 11:35:16;;;;;;;12.95;4.75;;;;;;;;;;5048444;28;20048;-66
2020/12/22 11:37:42;;;;;;;12.25;4.18;;;16.80;68.20;;;;;;5048351;28;20033;-66
2020/12/22 11:40:08;;;;;;;7.23;4.20;;;;;;;;;;5048016;28;20048;-66
2020/12/22 11:42:37;;;;;;;7.68;4.43;;;16.90;67.30;;;;;;5060914;28;20044;-66
2020/12/22 11:45:04;;;;;;;10.52;4.75;;;17.00;66.90;;;;;;5071087;28;20113;-67
2020/12/22 11:47:31;;;;;;;10.32;4.00;;;;;;;;;;5036677;28;20021;-65
2020/12/22 11:49:57;;;;;;;9.15;4.25;;;;;;;;;;5070884;28;20111;-64
2020/12/22 11:52:23;;;;;;;10.68;4.68;;;17.20;66.50;;;;;;5064093;28;20029;-68
2020/12/22 11:54:49;;;;;;;8.87;4.60;;;;;;;;;;5062584;28;20035;-67
2020/12/22 11:57:15;;;;;;;8.07;4.47;;;17.20;66.40;;;;;;5070879;28;20032;-67
2020/12/22 11:59:41;;;;;;;10.93;4.23;;;;;;;;;;5071170;28;20130;-65
2020/12/22 12:02:08;;;;;;;9.38;4.82;;;;;;;;;;5070416;28;20029;-66
2020/12/22 12:04:34;;;;;;;7.72;4.10;;;;;;;;;;5070969;28;20251;-67
2020/12/22 12:07:00;;;;;;;8.20;4.38;;;;;;;;;;5070732;28;20105;-66
2020/12/22 12:09:27;;;;;;;12.63;4.68;;;;;;;;;;5070671;28;20039;-66
2020/12/22 12:11:53;;;;;;;10.77;3.78;;;;;;;;;;5069950;28;20029;-64
2020/12/22 12:14:20;;;;;;;11.70;4.60;;;16.60;67.10;;;;;;5070139;28;20060;-68
2020/12/22 12:16:49;;;;;;;13.30;3.53;;;16.50;67.20;;;;;;5070664;28;20028;-67
2020/12/22 12:19:16;;;;;;;11.63;3.50;;;;;;;;;;5070700;28;20040;-66
2020/12/22 12:21:42;;;;;;;8.23;3.90;;;;;;;;;;5070532;28;20032;-67
2020/12/22 12:24:09;;;;;;;13.75;4.03;;;;;;;;;;5069129;28;20144;-66
2020/12/22 12:26:35;;;;;;;12.73;4.00;;;16.30;67.10;;;;;;5069449;28;20124;-65
2020/12/22 12:29:03;;;;;;;15.25;3.60;;;16.40;67.10;;;;;;5068756;28;20044;-66
2020/12/22 12:31:30;;;;;;;9.63;4.10;;;;;;;;;;5070077;28;20035;-67
2020/12/22 12:33:58;;;;;;;11.93;4.07;;;16.30;67.00;;;;;;5070376;28;20028;-67
2020/12/22 12:36:24;;;;;;;13.48;3.95;;;;;;;;;;5069864;28;20112;-67
2020/12/22 12:38:50;;;;;;;21.15;4.82;;;16.30;67.20;;;;;;5069589;28;20471;-68
2020/12/22 12:41:16;;;;;;;15.02;4.40;;;;;;;;;;5069978;28;20044;-66
2020/12/22 12:43:42;;;;;;;13.82;5.10;;;;;;;;;;5070028;28;20037;-67
2020/12/22 12:46:09;;;;;;;21.52;5.80;;;16.60;66.00;;;;;;5068597;28;20098;-70
2020/12/22 12:48:36;;;;;;;14.82;5.55;;;;;;;;;;5063931;28;20053;-66
2020/12/22 12:51:07;;;;;;;13.75;7.65;;;16.40;66.10;;;;;;5047408;28;20029;-67
2020/12/22 12:53:33;;;;;;;17.90;7.20;;;16.30;66.00;;;;;;5052113;28;20044;-66
2020/12/22 12:55:59;;;;;;;17.35;7.10;;;;;;;;;;5053923;28;20024;-67
2020/12/22 12:58:26;;;;;;;11.88;6.45;;;;;;;;;;5053425;28;20144;-66
2020/12/22 13:00:52;;;;;;;13.20;7.07;;;16.10;66.40;;;;;;5055695;28;20044;-66
2020/12/22 13:03:18;;;;;;;13.30;6.75;;;16.10;66.20;;;;;;5051166;28;20606;-67
2020/12/22 13:05:44;;;;;;;13.10;7.47;;;;;;;;;;5055896;28;20078;-66
2020/12/22 13:08:10;;;;;;;17.60;8.23;;;;;;;;;;5052789;28;20037;-65
2020/12/22 13:10:36;;;;;;;21.23;8.43;;;16.00;66.30;;;;;;5055044;28;20036;-66
2020/12/22 13:13:03;;;;;;;17.17;8.13;;;;;;;;;;5051410;28;20049;-66
2020/12/22 13:15:29;;;;;;;16.90;8.60;;;;;;;;;;5053582;28;20087;-66
2020/12/22 13:17:55;;;;;;;24.33;9.18;;;;;;;;;;5057023;28;20130;-66
2020/12/22 13:20:21;;;;;;;16.02;8.93;;;;;;;;;;5059677;28;20036;-65
2020/12/22 13:22:48;;;;;;;16.15;9.32;;;;;;;;;;5070856;28;20517;-65
2020/12/22 13:25:14;;;;;;;17.00;8.93;;;;;;;;;;5057189;28;20155;-66